CEB1134 RPVI-RPLC
Flight info
| Callsign | CEB1134 |
|---|---|
| Flight time | 0h 47m |
| Altitude | 30000 |
| Route | LAMBO1N LAMBO B472 IBAGO DCT MIA DCT OLIVA OLIVA5R |
| Aircraft | A21N/M-SDE3FGHIRWY/LB1 |
Departure
| Time | 2026-05-07 08:30 |
|---|---|
| Airport | Iloilo International Airport (RPVI) |
Arrival
| Time | 2026-05-07 09:17 |
|---|---|
| Airport | Clark International Airport / Clark Air Base (RPLC) |
| Time | Latitude | Longitude | Altitude | Speed | Heading |
|---|---|---|---|---|---|
| 2026-05-07 08:30 | 10.95978 | 122.50855 | 3634 ft | 274 kts | 324° |
| 2026-05-07 08:30 | 10.97486 | 122.49651 | 4205 ft | 278 kts | 325° |
| 2026-05-07 08:30 | 10.99019 | 122.48450 | 4817 ft | 281 kts | 326° |
| 2026-05-07 08:31 | 11.00577 | 122.47237 | 5438 ft | 283 kts | 326° |
| 2026-05-07 08:31 | 11.02142 | 122.46020 | 6056 ft | 286 kts | 326° |
| 2026-05-07 08:31 | 11.03746 | 122.44774 | 6681 ft | 289 kts | 326° |
| 2026-05-07 08:31 | 11.05333 | 122.43542 | 7280 ft | 292 kts | 326° |
| 2026-05-07 08:32 | 11.06972 | 122.42271 | 7861 ft | 295 kts | 326° |
| 2026-05-07 08:32 | 11.08600 | 122.41006 | 8427 ft | 298 kts | 326° |
| 2026-05-07 08:32 | 11.10270 | 122.39710 | 8987 ft | 301 kts | 326° |
| 2026-05-07 08:32 | 11.11942 | 122.38412 | 9515 ft | 304 kts | 326° |
| 2026-05-07 08:33 | 11.13630 | 122.37101 | 10027 ft | 307 kts | 326° |
| 2026-05-07 08:33 | 11.15354 | 122.35818 | 10426 ft | 313 kts | 329° |
| 2026-05-07 08:33 | 11.17283 | 122.34669 | 10661 ft | 325 kts | 336° |
| 2026-05-07 08:33 | 11.19389 | 122.33690 | 10890 ft | 336 kts | 339° |
| 2026-05-07 08:34 | 11.21571 | 122.32750 | 11103 ft | 348 kts | 340° |
| 2026-05-07 08:34 | 11.23841 | 122.31781 | 11314 ft | 360 kts | 340° |
| 2026-05-07 08:34 | 11.26218 | 122.30763 | 11591 ft | 370 kts | 339° |
| 2026-05-07 08:34 | 11.28588 | 122.29743 | 12033 ft | 372 kts | 339° |
| 2026-05-07 08:35 | 11.30975 | 122.28712 | 12504 ft | 374 kts | 339° |
| 2026-05-07 08:35 | 11.33383 | 122.27670 | 12948 ft | 376 kts | 339° |
| 2026-05-07 08:35 | 11.35804 | 122.26621 | 13387 ft | 378 kts | 339° |
| 2026-05-07 08:35 | 11.38257 | 122.25557 | 13877 ft | 378 kts | 339° |
| 2026-05-07 08:36 | 11.40636 | 122.24523 | 14638 ft | 369 kts | 339° |
| 2026-05-07 08:36 | 11.42959 | 122.23511 | 15444 ft | 358 kts | 339° |
| 2026-05-07 08:36 | 11.45222 | 122.22528 | 16071 ft | 353 kts | 339° |
| 2026-05-07 08:36 | 11.47510 | 122.21536 | 16491 ft | 355 kts | 339° |
| 2026-05-07 08:37 | 11.49795 | 122.20547 | 16870 ft | 357 kts | 340° |
| 2026-05-07 08:37 | 11.52093 | 122.19551 | 17243 ft | 359 kts | 340° |
| 2026-05-07 08:37 | 11.54394 | 122.18553 | 17607 ft | 362 kts | 340° |
| 2026-05-07 08:37 | 11.56711 | 122.17549 | 17971 ft | 364 kts | 339° |
| 2026-05-07 08:38 | 11.59077 | 122.16523 | 18333 ft | 366 kts | 339° |
| 2026-05-07 08:38 | 11.61414 | 122.15508 | 18682 ft | 368 kts | 339° |
| 2026-05-07 08:38 | 11.63796 | 122.14475 | 19029 ft | 370 kts | 339° |
| 2026-05-07 08:38 | 11.66144 | 122.13456 | 19363 ft | 371 kts | 339° |
| 2026-05-07 08:39 | 11.68554 | 122.12408 | 19696 ft | 373 kts | 339° |
| 2026-05-07 08:39 | 11.70948 | 122.11368 | 20025 ft | 375 kts | 339° |
| 2026-05-07 08:39 | 11.73354 | 122.10321 | 20348 ft | 377 kts | 339° |
| 2026-05-07 08:39 | 11.75772 | 122.09270 | 20659 ft | 379 kts | 339° |
| 2026-05-07 08:40 | 11.78237 | 122.08199 | 20963 ft | 381 kts | 339° |
| 2026-05-07 08:40 | 11.79871 | 122.07488 | 21160 ft | 382 kts | 339° |
| 2026-05-07 08:40 | 11.83130 | 122.06071 | 21535 ft | 385 kts | 339° |
| 2026-05-07 08:40 | 11.85626 | 122.04985 | 21814 ft | 387 kts | 339° |
| 2026-05-07 08:41 | 11.88098 | 122.03909 | 22078 ft | 390 kts | 339° |
| 2026-05-07 08:41 | 11.90632 | 122.02806 | 22358 ft | 392 kts | 338° |
| 2026-05-07 08:41 | 11.93134 | 122.01717 | 22642 ft | 394 kts | 338° |
| 2026-05-07 08:41 | 11.94814 | 122.00987 | 22839 ft | 395 kts | 338° |
| 2026-05-07 08:42 | 11.98194 | 121.99514 | 23232 ft | 396 kts | 338° |
| 2026-05-07 08:42 | 11.99907 | 121.98767 | 23432 ft | 397 kts | 338° |
| 2026-05-07 08:42 | 12.00760 | 121.98395 | 23530 ft | 398 kts | 338° |
| 2026-05-07 08:43 | 12.07741 | 121.95353 | 24351 ft | 400 kts | 338° |
| 2026-05-07 08:43 | 12.10336 | 121.94221 | 24640 ft | 402 kts | 338° |
| 2026-05-07 08:43 | 12.12902 | 121.93102 | 24912 ft | 403 kts | 338° |
| 2026-05-07 08:43 | 12.15509 | 121.91964 | 25176 ft | 405 kts | 337° |
| 2026-05-07 08:44 | 12.18088 | 121.90838 | 25437 ft | 406 kts | 337° |
| 2026-05-07 08:44 | 12.20691 | 121.89700 | 25695 ft | 408 kts | 337° |
| 2026-05-07 08:44 | 12.23328 | 121.88550 | 26011 ft | 408 kts | 337° |
| 2026-05-07 08:44 | 12.25934 | 121.87412 | 26281 ft | 409 kts | 337° |
| 2026-05-07 08:45 | 12.28572 | 121.86258 | 26500 ft | 412 kts | 337° |
| 2026-05-07 08:45 | 12.31206 | 121.85107 | 26734 ft | 413 kts | 337° |
| 2026-05-07 08:45 | 12.33898 | 121.83931 | 26985 ft | 415 kts | 337° |
| 2026-05-07 08:45 | 12.36559 | 121.82768 | 27247 ft | 416 kts | 336° |
| 2026-05-07 08:46 | 12.39212 | 121.81613 | 27506 ft | 417 kts | 336° |
| 2026-05-07 08:46 | 12.41879 | 121.80451 | 27743 ft | 418 kts | 336° |
| 2026-05-07 08:46 | 12.44596 | 121.79265 | 27961 ft | 420 kts | 336° |
| 2026-05-07 08:46 | 12.47288 | 121.78088 | 28174 ft | 422 kts | 336° |
| 2026-05-07 08:47 | 12.50018 | 121.76894 | 28400 ft | 424 kts | 336° |
| 2026-05-07 08:47 | 12.52750 | 121.75699 | 28629 ft | 426 kts | 336° |
| 2026-05-07 08:47 | 12.55469 | 121.74507 | 28854 ft | 427 kts | 336° |
| 2026-05-07 08:47 | 12.58203 | 121.73308 | 29080 ft | 429 kts | 336° |
| 2026-05-07 08:48 | 12.60982 | 121.72089 | 29302 ft | 430 kts | 336° |
| 2026-05-07 08:48 | 12.63728 | 121.70886 | 29521 ft | 432 kts | 336° |
| 2026-05-07 08:48 | 12.66507 | 121.69668 | 29732 ft | 433 kts | 336° |
| 2026-05-07 08:48 | 12.69273 | 121.68456 | 29791 ft | 438 kts | 336° |
| 2026-05-07 08:49 | 12.74974 | 121.65953 | 29801 ft | 451 kts | 336° |
| 2026-05-07 08:49 | 12.80822 | 121.63385 | 29810 ft | 463 kts | 336° |
| 2026-05-07 08:50 | 12.86844 | 121.60741 | 29821 ft | 473 kts | 336° |
| 2026-05-07 08:50 | 12.92901 | 121.58079 | 29823 ft | 473 kts | 336° |
| 2026-05-07 08:51 | 12.98952 | 121.55419 | 29830 ft | 472 kts | 336° |
| 2026-05-07 08:51 | 13.04997 | 121.52758 | 29832 ft | 472 kts | 336° |
| 2026-05-07 08:52 | 13.11050 | 121.50092 | 29833 ft | 470 kts | 336° |
| 2026-05-07 08:52 | 13.17085 | 121.47435 | 29835 ft | 469 kts | 336° |
| 2026-05-07 08:53 | 13.23061 | 121.44800 | 29834 ft | 468 kts | 336° |
| 2026-05-07 08:53 | 13.29067 | 121.42149 | 29829 ft | 468 kts | 336° |
| 2026-05-07 08:54 | 13.35076 | 121.39497 | 29824 ft | 467 kts | 336° |
| 2026-05-07 08:54 | 13.41056 | 121.36853 | 29821 ft | 467 kts | 336° |
| 2026-05-07 08:55 | 13.47026 | 121.34212 | 29821 ft | 466 kts | 336° |
| 2026-05-07 08:55 | 13.53019 | 121.31615 | 29819 ft | 466 kts | 338° |
| 2026-05-07 08:56 | 13.59205 | 121.29522 | 29815 ft | 466 kts | 343° |
| 2026-05-07 08:56 | 13.62308 | 121.28597 | 29595 ft | 466 kts | 343° |
| 2026-05-07 08:56 | 13.65419 | 121.27676 | 29356 ft | 463 kts | 343° |
| 2026-05-07 08:57 | 13.68559 | 121.26748 | 29111 ft | 459 kts | 343° |
| 2026-05-07 08:57 | 13.71616 | 121.25841 | 28875 ft | 457 kts | 343° |
| 2026-05-07 08:57 | 13.74645 | 121.24940 | 28638 ft | 454 kts | 343° |
| 2026-05-07 08:57 | 13.77692 | 121.24034 | 28275 ft | 454 kts | 344° |
| 2026-05-07 08:58 | 13.80732 | 121.23128 | 27692 ft | 455 kts | 344° |
| 2026-05-07 08:58 | 13.83785 | 121.22219 | 27142 ft | 451 kts | 344° |
| 2026-05-07 08:58 | 13.86771 | 121.21329 | 26663 ft | 446 kts | 344° |
| 2026-05-07 08:58 | 13.89727 | 121.20447 | 26181 ft | 441 kts | 344° |
| 2026-05-07 08:59 | 13.92692 | 121.19562 | 25683 ft | 437 kts | 344° |
| 2026-05-07 08:59 | 13.95596 | 121.18696 | 25179 ft | 433 kts | 344° |
| 2026-05-07 08:59 | 13.98484 | 121.17834 | 24665 ft | 430 kts | 345° |
| 2026-05-07 08:59 | 14.01365 | 121.16975 | 24150 ft | 427 kts | 344° |
| 2026-05-07 09:00 | 14.04212 | 121.16125 | 23630 ft | 425 kts | 344° |
| 2026-05-07 09:00 | 14.07025 | 121.15286 | 23109 ft | 422 kts | 345° |
| 2026-05-07 09:00 | 14.09870 | 121.14435 | 22578 ft | 420 kts | 345° |
| 2026-05-07 09:00 | 14.12674 | 121.13596 | 22060 ft | 418 kts | 345° |
| 2026-05-07 09:01 | 14.15476 | 121.12759 | 21546 ft | 416 kts | 345° |
| 2026-05-07 09:01 | 14.18266 | 121.11924 | 21035 ft | 414 kts | 345° |
| 2026-05-07 09:01 | 14.21027 | 121.11098 | 20544 ft | 411 kts | 345° |
| 2026-05-07 09:01 | 14.23767 | 121.10278 | 20054 ft | 409 kts | 345° |
| 2026-05-07 09:02 | 14.26520 | 121.09454 | 19566 ft | 406 kts | 345° |
| 2026-05-07 09:02 | 14.29196 | 121.08653 | 19088 ft | 404 kts | 345° |
| 2026-05-07 09:02 | 14.31920 | 121.07838 | 18582 ft | 401 kts | 345° |
| 2026-05-07 09:02 | 14.34602 | 121.07034 | 18091 ft | 399 kts | 345° |
| 2026-05-07 09:03 | 14.37266 | 121.06235 | 17601 ft | 397 kts | 345° |
| 2026-05-07 09:03 | 14.39913 | 121.05441 | 17111 ft | 395 kts | 345° |
| 2026-05-07 09:03 | 14.42572 | 121.04642 | 16623 ft | 393 kts | 345° |
| 2026-05-07 09:03 | 14.45180 | 121.03859 | 16134 ft | 391 kts | 345° |
| 2026-05-07 09:04 | 14.47798 | 121.03071 | 15631 ft | 390 kts | 344° |
| 2026-05-07 09:04 | 14.50361 | 121.02094 | 15103 ft | 390 kts | 337° |
| 2026-05-07 09:04 | 14.52796 | 121.00824 | 14589 ft | 390 kts | 331° |
| 2026-05-07 09:04 | 14.55096 | 120.99339 | 14077 ft | 389 kts | 328° |
| 2026-05-07 09:05 | 14.57335 | 120.97818 | 13568 ft | 388 kts | 328° |
| 2026-05-07 09:05 | 14.59586 | 120.96277 | 13055 ft | 386 kts | 327° |
| 2026-05-07 09:05 | 14.61825 | 120.94748 | 12552 ft | 385 kts | 328° |
| 2026-05-07 09:05 | 14.64054 | 120.93228 | 12050 ft | 383 kts | 328° |
| 2026-05-07 09:06 | 14.66271 | 120.91721 | 11559 ft | 381 kts | 328° |
| 2026-05-07 09:06 | 14.68291 | 120.90349 | 11123 ft | 378 kts | 328° |
| 2026-05-07 09:06 | 14.69736 | 120.89372 | 10934 ft | 375 kts | 328° |
| 2026-05-07 09:06 | 14.71914 | 120.87893 | 10710 ft | 364 kts | 328° |
| 2026-05-07 09:07 | 14.74004 | 120.86474 | 10578 ft | 352 kts | 327° |
| 2026-05-07 09:07 | 14.76014 | 120.85107 | 10405 ft | 340 kts | 328° |
| 2026-05-07 09:07 | 14.77957 | 120.83785 | 10229 ft | 329 kts | 328° |
| 2026-05-07 09:07 | 14.79825 | 120.82513 | 10062 ft | 317 kts | 328° |
| 2026-05-07 09:08 | 14.81651 | 120.81269 | 9785 ft | 308 kts | 328° |
| 2026-05-07 09:08 | 14.83432 | 120.80057 | 9373 ft | 306 kts | 329° |
| 2026-05-07 09:08 | 14.85224 | 120.78841 | 8977 ft | 304 kts | 329° |
| 2026-05-07 09:08 | 14.86978 | 120.77651 | 8618 ft | 301 kts | 329° |
| 2026-05-07 09:09 | 14.88727 | 120.76465 | 8255 ft | 298 kts | 328° |
| 2026-05-07 09:09 | 14.90449 | 120.75294 | 7923 ft | 296 kts | 328° |
| 2026-05-07 09:09 | 14.92183 | 120.74116 | 7552 ft | 294 kts | 328° |
| 2026-05-07 09:09 | 14.93854 | 120.72941 | 7177 ft | 291 kts | 322° |
| 2026-05-07 09:10 | 14.95070 | 120.71307 | 6780 ft | 289 kts | 292° |
| 2026-05-07 09:10 | 14.95489 | 120.69306 | 6537 ft | 281 kts | 278° |
| 2026-05-07 09:10 | 14.95734 | 120.67332 | 6367 ft | 272 kts | 279° |
| 2026-05-07 09:10 | 14.95988 | 120.65429 | 6160 ft | 265 kts | 279° |
| 2026-05-07 09:11 | 14.96254 | 120.63564 | 5917 ft | 260 kts | 280° |
| 2026-05-07 09:11 | 14.96523 | 120.61734 | 5684 ft | 255 kts | 280° |
| 2026-05-07 09:11 | 14.96836 | 120.59956 | 5419 ft | 249 kts | 286° |
| 2026-05-07 09:11 | 14.97335 | 120.58257 | 5135 ft | 245 kts | 292° |
| 2026-05-07 09:12 | 14.97941 | 120.56616 | 4792 ft | 245 kts | 293° |
| 2026-05-07 09:12 | 14.98568 | 120.54967 | 4468 ft | 242 kts | 293° |
| 2026-05-07 09:12 | 14.99170 | 120.53376 | 4264 ft | 232 kts | 293° |
| 2026-05-07 09:12 | 14.99743 | 120.51852 | 3959 ft | 224 kts | 293° |
| 2026-05-07 09:13 | 15.00443 | 120.50510 | 3798 ft | 203 kts | 317° |
| 2026-05-07 09:13 | 15.01534 | 120.49875 | 3656 ft | 180 kts | 350° |
| 2026-05-07 09:13 | 15.02754 | 120.49904 | 3608 ft | 177 kts | 17° |
| 2026-05-07 09:13 | 15.03903 | 120.50343 | 3532 ft | 177 kts | 23° |
| 2026-05-07 09:14 | 15.05051 | 120.50822 | 3395 ft | 176 kts | 23° |
| 2026-05-07 09:14 | 15.06178 | 120.51288 | 3286 ft | 168 kts | 23° |
| 2026-05-07 09:14 | 15.07221 | 120.51711 | 3069 ft | 156 kts | 23° |
| 2026-05-07 09:14 | 15.08213 | 120.52112 | 2751 ft | 152 kts | 22° |
| 2026-05-07 09:15 | 15.09219 | 120.52515 | 2492 ft | 152 kts | 22° |
| 2026-05-07 09:15 | 15.10206 | 120.52910 | 2246 ft | 152 kts | 22° |
| 2026-05-07 09:15 | 15.11191 | 120.53301 | 2009 ft | 151 kts | 22° |
| 2026-05-07 09:15 | 15.12180 | 120.53694 | 1769 ft | 151 kts | 22° |
| 2026-05-07 09:16 | 15.13152 | 120.54080 | 1540 ft | 151 kts | 21° |
| 2026-05-07 09:16 | 15.14131 | 120.54469 | 1305 ft | 150 kts | 21° |
| 2026-05-07 09:16 | 15.15116 | 120.54858 | 1069 ft | 149 kts | 21° |
| 2026-05-07 09:16 | 15.16086 | 120.55246 | 828 ft | 149 kts | 22° |
| 2026-05-07 09:17 | 15.17047 | 120.55637 | 604 ft | 148 kts | 21° |
| 2026-05-07 09:17 | 15.17993 | 120.56007 | 470 ft | 137 kts | 21° |
| 2026-05-07 09:17 | 15.18732 | 120.56297 | 470 ft | 87 kts | 21° |
| 2026-05-07 09:17 | 15.19138 | 120.56458 | 470 ft | 43 kts | 19° |
| 2026-05-07 09:18 | 15.19377 | 120.56556 | 470 ft | 32 kts | 20° |
| 2026-05-07 09:18 | 15.19541 | 120.56619 | 470 ft | 18 kts | 20° |
| 2026-05-07 09:18 | 15.19616 | 120.56615 | 470 ft | 9 kts | 308° |
| 2026-05-07 09:18 | 15.19641 | 120.56552 | 471 ft | 9 kts | 292° |
| 2026-05-07 09:19 | 15.19666 | 120.56485 | 471 ft | 10 kts | 290° |
| 2026-05-07 09:19 | 15.19691 | 120.56414 | 471 ft | 9 kts | 286° |
| 2026-05-07 09:19 | 15.19658 | 120.56364 | 471 ft | 10 kts | 199° |
| 2026-05-07 09:19 | 15.19590 | 120.56338 | 471 ft | 10 kts | 201° |
| 2026-05-07 09:20 | 15.19519 | 120.56310 | 471 ft | 11 kts | 201° |
| 2026-05-07 09:20 | 15.19444 | 120.56279 | 471 ft | 11 kts | 207° |
| 2026-05-07 09:20 | 15.19430 | 120.56222 | 471 ft | 9 kts | 288° |
| 2026-05-07 09:20 | 15.19453 | 120.56158 | 471 ft | 10 kts | 291° |
| 2026-05-07 09:21 | 15.19476 | 120.56097 | 471 ft | 7 kts | 294° |
| 2026-05-07 09:21 | 15.19517 | 120.56067 | 471 ft | 7 kts | 346° |
| 2026-05-07 09:21 | 15.19572 | 120.56065 | 471 ft | 7 kts | 360° |
| 2026-05-07 09:21 | 15.19593 | 120.56064 | 471 ft | 0 kts | 358° |